Time;durP1;ratioP1;P1;durP2;ratioP2;P2;SDS_P1;SDS_P2;PMS_P1;PMS_P2;Temp;Humidity;BMP_temperature;BMP_pressure;BME280_temperature;BME280_humidity;BME280_pressure;Samples;Min_cycle;Max_cycle;Signal;HPM_P1;HPM_P2
2023/06/14 00:01:51;;;;;;;11.90;6.00;;;;;;;;;;110948;1256;22193;-77
2023/06/14 00:04:18;;;;;;;11.30;5.30;;;;;;;;;;110629;1275;22226;-78
2023/06/14 00:06:50;;;;;;;10.20;5.20;;;;;;;;;;110620;1276;22115;-77
2023/06/14 00:09:17;;;;;;;10.30;5.70;;;;;;;;;;110630;1276;22105;-78
2023/06/14 00:11:43;;;;;;;10.80;5.20;;;;;;;;;;110921;1257;22145;-78
2023/06/14 00:14:29;;;;;;;9.50;5.40;;;;;;;;;;110637;1266;22401;-77
2023/06/14 00:16:58;;;;;;;8.90;4.90;;;;;;;;;;110683;1265;22729;-78
2023/06/14 00:19:25;;;;;;;9.30;5.60;;;;;;;;;;110635;1276;22847;-78
2023/06/14 00:22:12;;;;;;;11.40;5.90;;;;;;;;;;110615;1259;22217;-77
2023/06/14 00:24:37;;;;;;;11.70;6.60;;;;;;;;;;110614;1276;22178;-77
2023/06/14 00:27:04;;;;;;;10.90;6.30;;;;;;;;;;110610;1276;22131;-78
2023/06/14 00:29:30;;;;;;;13.70;5.80;;;;;;;;;;110641;1276;22936;-77
2023/06/14 00:31:56;;;;;;;13.10;6.30;;;;;;;;;;110784;1259;22153;-78
2023/06/14 00:34:25;;;;;;;12.00;6.20;;;;;;;;;;110607;1276;22130;-77
2023/06/14 00:36:51;;;;;;;11.70;6.10;;;;;;;;;;110626;1276;22112;-77
2023/06/14 00:39:17;;;;;;;9.60;6.30;;;;;;;;;;110623;1275;22152;-77
2023/06/14 00:41:43;;;;;;;11.10;6.30;;;;;;;;;;110493;1258;22126;-77
2023/06/14 00:44:09;;;;;;;13.10;6.60;;;;;;;;;;110639;1273;22958;-78
2023/06/14 00:46:38;;;;;;;13.80;7.00;;;;;;;;;;110683;1276;22091;-77
2023/06/14 00:49:06;;;;;;;12.10;5.80;;;;;;;;;;110665;1276;22829;-78
2023/06/14 00:51:32;;;;;;;11.00;5.80;;;;;;;;;;110532;1257;22746;-78
2023/06/14 00:54:00;;;;;;;10.70;5.60;;;;;;;;;;110380;1276;22086;-77
2023/06/14 00:56:27;;;;;;;12.90;6.00;;;;;;;;;;110415;1276;22140;-77
2023/06/14 00:58:54;;;;;;;10.00;5.30;;;;;;;;;;110636;1276;22131;-78
2023/06/14 01:01:21;;;;;;;11.60;5.40;;;;;;;;;;110368;1253;22898;-77
2023/06/14 01:03:48;;;;;;;9.20;5.00;;;;;;;;;;110273;1276;22133;-78
2023/06/14 01:06:26;;;;;;;9.50;4.80;;;;;;;;;;110471;1276;22110;-77
2023/06/14 01:09:10;;;;;;;10.10;5.20;;;;;;;;;;110384;1276;22140;-78
2023/06/14 01:11:41;;;;;;;11.40;5.20;;;;;;;;;;110550;1254;22192;-78
2023/06/14 01:14:08;;;;;;;11.30;6.30;;;;;;;;;;110350;1276;22183;-78
2023/06/14 01:16:36;;;;;;;10.10;6.30;;;;;;;;;;110670;1276;22132;-78
2023/06/14 01:19:03;;;;;;;10.20;5.80;;;;;;;;;;110647;1276;22129;-77
2023/06/14 01:21:29;;;;;;;10.10;5.60;;;;;;;;;;110450;1252;21996;-78
2023/06/14 01:23:56;;;;;;;12.40;5.90;;;;;;;;;;110329;1275;22462;-77
2023/06/14 01:26:23;;;;;;;11.20;5.90;;;;;;;;;;110653;1275;22606;-77
2023/06/14 01:28:58;;;;;;;10.30;6.10;;;;;;;;;;110487;1275;22148;-78
2023/06/14 01:31:24;;;;;;;11.00;5.80;;;;;;;;;;110482;1275;22133;-77
2023/06/14 01:33:51;;;;;;;10.80;6.10;;;;;;;;;;110639;1260;22807;-77
2023/06/14 01:36:19;;;;;;;8.90;5.50;;;;;;;;;;110456;1275;22103;-78
2023/06/14 01:38:46;;;;;;;10.30;6.20;;;;;;;;;;110465;1275;22162;-77
2023/06/14 01:41:13;;;;;;;12.90;6.00;;;;;;;;;;110418;1275;22111;-77
2023/06/14 01:43:41;;;;;;;9.90;5.80;;;;;;;;;;110803;1258;22180;-78
2023/06/14 01:46:11;;;;;;;11.40;5.60;;;;;;;;;;110652;1276;22231;-78
2023/06/14 01:48:38;;;;;;;11.00;6.10;;;;;;;;;;110574;1276;22134;-77
2023/06/14 01:51:05;;;;;;;10.50;6.30;;;;;;;;;;110431;1276;22390;-77
2023/06/14 01:53:32;;;;;;;11.50;5.50;;;;;;;;;;110629;1260;22101;-78
2023/06/14 01:55:59;;;;;;;9.10;5.30;;;;;;;;;;110630;1276;22106;-78
2023/06/14 01:58:26;;;;;;;10.60;5.60;;;;;;;;;;110286;1276;22192;-77
2023/06/14 02:00:55;;;;;;;14.20;5.80;;;;;;;;;;110424;1276;22641;-78
2023/06/14 02:03:21;;;;;;;9.00;5.20;;;;;;;;;;110664;1260;22959;-78
2023/06/14 02:05:48;;;;;;;9.50;5.60;;;;;;;;;;110647;1276;23168;-77
2023/06/14 02:08:15;;;;;;;10.90;6.10;;;;;;;;;;110436;1276;22109;-78
2023/06/14 02:10:43;;;;;;;9.80;6.00;;;;;;;;;;110432;1276;22442;-78
2023/06/14 02:13:09;;;;;;;12.20;5.90;;;;;;;;;;110504;1259;22908;-77
2023/06/14 02:15:37;;;;;;;12.10;5.70;;;;;;;;;;110579;1276;22255;-78
2023/06/14 02:18:04;;;;;;;9.90;5.70;;;;;;;;;;110530;1276;22187;-78
2023/06/14 02:20:33;;;;;;;11.20;6.70;;;;;;;;;;110530;1276;22708;-78
2023/06/14 02:23:00;;;;;;;11.80;6.00;;;;;;;;;;110640;1254;22163;-78
2023/06/14 02:25:27;;;;;;;9.90;5.70;;;;;;;;;;110435;1276;21988;-78
2023/06/14 02:27:55;;;;;;;11.70;5.60;;;;;;;;;;110577;1276;22175;-78
2023/06/14 02:30:24;;;;;;;10.20;5.60;;;;;;;;;;110417;1275;22571;-78
2023/06/14 02:32:52;;;;;;;10.00;5.40;;;;;;;;;;110651;1253;22170;-78
2023/06/14 02:35:20;;;;;;;11.00;5.60;;;;;;;;;;110560;1276;22128;-78
2023/06/14 02:37:47;;;;;;;10.30;5.40;;;;;;;;;;110529;1276;22216;-77
2023/06/14 02:40:15;;;;;;;11.20;5.90;;;;;;;;;;110526;1276;22572;-78
2023/06/14 02:42:44;;;;;;;10.00;5.40;;;;;;;;;;110468;1276;22097;-78
2023/06/14 02:45:12;;;;;;;10.90;5.90;;;;;;;;;;110805;1260;22813;-78
2023/06/14 02:47:41;;;;;;;11.40;5.60;;;;;;;;;;110328;1274;22669;-78
2023/06/14 02:50:09;;;;;;;11.40;6.20;;;;;;;;;;110460;1276;22827;-78
2023/06/14 02:52:38;;;;;;;11.30;6.00;;;;;;;;;;110489;1276;22108;-78
2023/06/14 03:02:33;;;;;;;9.90;5.40;;;;;;;;;;110056;1282;22179;-79
2023/06/14 03:05:03;;;;;;;9.60;5.30;;;;;;;;;;110202;1263;22185;-79
2023/06/14 03:07:32;;;;;;;10.20;5.50;;;;;;;;;;110020;1281;22148;-78
2023/06/14 03:10:02;;;;;;;10.10;5.40;;;;;;;;;;110009;1281;22157;-78
2023/06/14 03:12:33;;;;;;;10.50;5.70;;;;;;;;;;110029;1281;22794;-78
2023/06/14 03:15:02;;;;;;;9.30;5.40;;;;;;;;;;110089;1265;22195;-78
2023/06/14 03:17:35;;;;;;;9.80;5.40;;;;;;;;;;109999;1282;22040;-79
2023/06/14 03:20:06;;;;;;;13.80;6.50;;;;;;;;;;109937;1282;22326;-78
2023/06/14 03:22:39;;;;;;;9.70;5.70;;;;;;;;;;110055;1282;22181;-79
2023/06/14 03:25:16;;;;;;;11.10;5.70;;;;;;;;;;110196;1261;22910;-78
2023/06/14 03:27:48;;;;;;;10.30;5.10;;;;;;;;;;110014;1281;22176;-78
2023/06/14 03:30:16;;;;;;;12.00;5.80;;;;;;;;;;110058;1281;22215;-78
2023/06/14 03:32:48;;;;;;;11.70;5.60;;;;;;;;;;109970;1281;22166;-78
2023/06/14 03:35:19;;;;;;;10.70;5.50;;;;;;;;;;110538;1254;22163;-78
2023/06/14 03:37:49;;;;;;;11.00;6.10;;;;;;;;;;110473;1276;22126;-78
2023/06/14 03:47:23;;;;;;;12.00;5.90;;;;;;;;;;103956;1292;545104;-84
2023/06/14 03:49:53;;;;;;;10.00;5.50;;;;;;;;;;106306;1286;23877;-84
2023/06/14 03:52:40;;;;;;;11.50;5.70;;;;;;;;;;106342;1286;22521;-82
2023/06/14 03:55:07;;;;;;;10.70;5.60;;;;;;;;;;106094;1286;22534;-78
2023/06/14 03:57:37;;;;;;;12.10;5.50;;;;;;;;;;107099;1275;25441;-79
2023/06/14 04:00:06;;;;;;;10.10;5.60;;;;;;;;;;104234;1273;3601311;-84
2023/06/14 04:02:41;;;;;;;11.20;6.20;;;;;;;;;;107229;1260;22530;-80
2023/06/14 04:05:31;;;;;;;10.40;5.50;;;;;;;;;;107053;1274;22647;-81
2023/06/14 04:08:22;;;;;;;11.00;6.00;;;;;;;;;;107171;1258;22523;-82
2023/06/14 04:10:49;;;;;;;10.80;5.80;;;;;;;;;;107173;1273;25401;-83
2023/06/14 04:13:23;;;;;;;11.20;6.30;;;;;;;;;;107188;1272;22510;-78
2023/06/14 04:15:53;;;;;;;12.60;5.70;;;;;;;;;;107194;1273;22520;-82
2023/06/14 04:18:35;;;;;;;10.60;5.50;;;;;;;;;;107089;1256;24246;-84
2023/06/14 04:21:02;;;;;;;10.90;5.90;;;;;;;;;;107100;1272;25396;-82
2023/06/14 04:23:32;;;;;;;13.80;6.10;;;;;;;;;;106951;1274;22517;-80
2023/06/14 04:26:12;;;;;;;12.00;6.20;;;;;;;;;;107070;1274;22522;-83
2023/06/14 04:28:45;;;;;;;13.90;6.20;;;;;;;;;;107175;1256;24245;-82
2023/06/14 04:31:39;;;;;;;11.60;5.90;;;;;;;;;;107219;1273;24174;-80
2023/06/14 04:34:25;;;;;;;;;;;;;;;;;;;;;
2023/06/14 04:37:08;;;;;;;11.50;6.40;;;;;;;;;;107235;1272;22536;-77
2023/06/14 04:39:42;;;;;;;11.40;6.50;;;;;;;;;;107023;1256;22912;-82
2023/06/14 04:42:40;;;;;;;;;;;;;;;;;;;;;
2023/06/14 04:45:47;;;;;;;13.10;6.20;;;;;;;;;;107027;1274;25328;-78
2023/06/14 04:48:24;;;;;;;13.80;6.20;;;;;;;;;;106880;1267;23999;-82
2023/06/14 04:50:59;;;;;;;12.60;5.80;;;;;;;;;;107151;1269;22573;-78
2023/06/14 04:56:34;;;;;;;12.00;6.60;;;;;;;;;;107064;1274;24291;-84
2023/06/14 05:00:06;;;;;;;14.40;6.50;;;;;;;;;;107044;1258;22541;-83
2023/06/14 05:02:15;;;;;;;13.50;6.90;;;;;;;;;;107012;1275;24253;-83
2023/06/14 05:04:57;;;;;;;11.00;6.50;;;;;;;;;;106879;1275;24246;-82
2023/06/14 05:07:24;;;;;;;13.10;6.80;;;;;;;;;;106932;1275;22484;-78
2023/06/14 05:09:55;;;;;;;10.20;5.60;;;;;;;;;;106950;1274;22518;-83
2023/06/14 05:12:26;;;;;;;12.90;6.10;;;;;;;;;;106956;1274;22525;-83
2023/06/14 05:15:04;;;;;;;11.10;5.90;;;;;;;;;;106979;1274;22983;-79
2023/06/14 05:17:31;;;;;;;13.90;6.50;;;;;;;;;;107147;1274;25402;-81
2023/06/14 05:20:20;;;;;;;15.30;7.00;;;;;;;;;;106991;1259;22536;-79
2023/06/14 05:23:06;;;;;;;11.60;6.60;;;;;;;;;;107083;1253;22543;-83
2023/06/14 05:25:36;;;;;;;12.20;6.60;;;;;;;;;;106914;1269;23006;-78
2023/06/14 05:28:05;;;;;;;10.70;6.60;;;;;;;;;;106725;1275;22537;-77
2023/06/14 05:30:44;;;;;;;11.00;6.20;;;;;;;;;;107120;1256;22893;-77
2023/06/14 05:33:31;;;;;;;;;;;;;;;;;;;;;
2023/06/14 05:36:05;;;;;;;16.70;6.30;;;;;;;;;;106955;1266;22624;-84
2023/06/14 05:38:57;;;;;;;11.90;5.50;;;;;;;;;;106936;1274;22524;-79
2023/06/14 05:42:13;;;;;;;12.40;6.40;;;;;;;;;;106875;1275;25278;-82
2023/06/14 05:44:19;;;;;;;9.40;5.40;;;;;;;;;;106901;1275;25251;-81
2023/06/14 05:46:48;;;;;;;11.90;6.20;;;;;;;;;;106868;1275;22523;-80
2023/06/14 05:49:30;;;;;;;11.70;6.60;;;;;;;;;;106973;1260;25343;-77
2023/06/14 05:51:57;;;;;;;10.20;6.40;;;;;;;;;;110644;1274;22117;-77
2023/06/14 05:54:24;;;;;;;18.40;7.40;;;;;;;;;;110617;1275;22126;-78
2023/06/14 05:56:51;;;;;;;14.50;6.90;;;;;;;;;;110633;1272;22225;-77
2023/06/14 05:59:20;;;;;;;13.40;6.70;;;;;;;;;;110583;1254;22117;-77
2023/06/14 06:01:48;;;;;;;19.50;7.50;;;;;;;;;;110493;1276;23300;-77
2023/06/14 06:04:15;;;;;;;19.40;7.30;;;;;;;;;;110347;1276;23156;-77
2023/06/14 06:06:51;;;;;;;18.40;6.50;;;;;;;;;;110472;1276;22090;-77
2023/06/14 06:09:18;;;;;;;15.40;6.30;;;;;;;;;;110680;1253;22819;-77
2023/06/14 06:11:48;;;;;;;22.90;6.60;;;;;;;;;;110606;1275;22130;-77
2023/06/14 06:14:14;;;;;;;22.30;7.00;;;;;;;;;;110645;1275;22023;-77
2023/06/14 06:16:45;;;;;;;18.50;6.60;;;;;;;;;;110481;1275;22093;-77
2023/06/14 06:19:12;;;;;;;16.00;6.60;;;;;;;;;;110467;1275;22815;-77
2023/06/14 06:21:42;;;;;;;13.90;5.70;;;;;;;;;;110470;1259;22145;-77
2023/06/14 06:24:08;;;;;;;18.10;6.80;;;;;;;;;;110622;1276;22124;-77
2023/06/14 06:26:35;;;;;;;18.60;6.90;;;;;;;;;;110638;1276;22761;-77
2023/06/14 06:29:02;;;;;;;12.40;6.70;;;;;;;;;;110632;1276;22365;-77
2023/06/14 06:31:28;;;;;;;13.30;6.60;;;;;;;;;;110677;1259;22323;-77
2023/06/14 06:33:55;;;;;;;12.90;6.20;;;;;;;;;;110487;1275;22393;-77
2023/06/14 06:36:22;;;;;;;15.40;6.10;;;;;;;;;;110629;1275;22216;-77
2023/06/14 06:38:49;;;;;;;12.70;5.70;;;;;;;;;;110573;1275;22115;-78
2023/06/14 06:41:16;;;;;;;10.40;5.30;;;;;;;;;;110801;1256;22641;-78
2023/06/14 06:43:43;;;;;;;10.80;5.40;;;;;;;;;;110552;1276;22745;-77
2023/06/14 06:46:10;;;;;;;13.20;5.50;;;;;;;;;;110443;1276;22791;-77
2023/06/14 06:48:36;;;;;;;12.90;5.20;;;;;;;;;;110550;1276;22966;-76
2023/06/14 06:51:08;;;;;;;13.80;6.10;;;;;;;;;;110773;1256;22091;-76
2023/06/14 06:53:51;;;;;;;12.00;4.80;;;;;;;;;;110698;1275;22108;-79
2023/06/14 06:56:27;;;;;;;11.40;5.40;;;;;;;;;;110632;1275;22664;-76
2023/06/14 06:58:53;;;;;;;13.70;6.00;;;;;;;;;;110569;1276;22119;-78
2023/06/14 07:01:52;;;;;;;16.20;5.70;;;;;;;;;;110499;1259;22117;-77
2023/06/14 07:04:20;;;;;;;17.30;5.90;;;;;;;;;;110576;1276;22317;-78
2023/06/14 07:06:47;;;;;;;13.60;6.10;;;;;;;;;;110554;1276;22124;-77
2023/06/14 07:09:15;;;;;;;13.60;5.20;;;;;;;;;;110563;1276;22287;-77
2023/06/14 07:11:55;;;;;;;11.40;5.20;;;;;;;;;;110890;1256;22758;-77
2023/06/14 07:14:25;;;;;;;16.60;5.60;;;;;;;;;;110596;1276;22834;-77
2023/06/14 07:16:51;;;;;;;14.80;5.10;;;;;;;;;;110591;1276;22333;-78
2023/06/14 07:19:18;;;;;;;12.10;4.60;;;;;;;;;;110616;1275;22358;-77
2023/06/14 07:21:54;;;;;;;16.10;6.70;;;;;;;;;;110742;1259;22851;-77
2023/06/14 07:24:24;;;;;;;14.80;6.10;;;;;;;;;;110467;1276;22323;-77
2023/06/14 07:26:53;;;;;;;12.00;5.50;;;;;;;;;;110570;1276;22056;-78
2023/06/14 07:29:29;;;;;;;11.60;5.30;;;;;;;;;;110536;1276;22276;-77
2023/06/14 07:32:05;;;;;;;13.10;5.60;;;;;;;;;;110724;1253;22146;-78
2023/06/14 07:34:32;;;;;;;11.60;5.60;;;;;;;;;;110629;1275;22308;-77
2023/06/14 07:40:47;;;;;;;11.90;5.50;;;;;;;;;;110102;1281;22418;-78
2023/06/14 07:43:14;;;;;;;14.40;5.90;;;;;;;;;;110379;1265;22260;-77
2023/06/14 07:45:41;;;;;;;9.60;5.10;;;;;;;;;;110029;1282;22138;-77
2023/06/14 07:48:11;;;;;;;11.10;4.90;;;;;;;;;;110047;1282;22871;-76
2023/06/14 07:50:46;;;;;;;11.10;5.60;;;;;;;;;;110055;1282;22247;-77
2023/06/14 07:54:18;;;;;;;11.60;5.80;;;;;;;;;;110365;1262;22177;-77
2023/06/14 07:56:40;;;;;;;13.60;7.00;;;;;;;;;;109754;1287;22176;-77
2023/06/14 07:59:14;;;;;;;12.70;7.50;;;;;;;;;;109759;1288;22285;-77
2023/06/14 08:05:54;;;;;;;14.60;7.90;;;;;;;;;;109245;1293;22123;-77
2023/06/14 08:12:34;;;;;;;13.00;6.50;;;;;;;;;;109464;1274;22165;-77
2023/06/14 08:15:01;;;;;;;15.40;8.60;;;;;;;;;;110219;1280;22952;-78
2023/06/14 08:24:52;;;;;;;14.20;8.60;;;;;;;;;;109923;1275;22171;-77
2023/06/14 08:27:20;;;;;;;15.50;8.10;;;;;;;;;;109908;1285;22899;-77
2023/06/14 08:29:58;;;;;;;15.10;7.80;;;;;;;;;;109911;1285;22062;-76
2023/06/14 08:32:25;;;;;;;16.60;8.10;;;;;;;;;;109899;1285;22264;-77
2023/06/14 08:34:52;;;;;;;14.10;8.70;;;;;;;;;;109879;1267;22246;-77
2023/06/14 08:37:20;;;;;;;15.70;9.00;;;;;;;;;;109884;1284;23011;-77
2023/06/14 08:39:46;;;;;;;12.30;8.50;;;;;;;;;;109899;1284;22172;-76
2023/06/14 08:42:14;;;;;;;15.60;10.60;;;;;;;;;;109804;1285;22228;-77
2023/06/14 08:44:44;;;;;;;13.50;9.00;;;;;;;;;;109813;1270;22125;-77
2023/06/14 08:47:11;;;;;;;14.40;9.30;;;;;;;;;;109894;1285;22141;-78
2023/06/14 08:49:40;;;;;;;16.20;10.10;;;;;;;;;;109783;1286;22980;-77
2023/06/14 08:52:08;;;;;;;16.30;10.00;;;;;;;;;;109871;1286;22171;-78
2023/06/14 08:54:44;;;;;;;17.10;9.40;;;;;;;;;;109973;1268;22167;-78
2023/06/14 08:57:12;;;;;;;14.70;8.70;;;;;;;;;;109940;1278;22862;-77
2023/06/14 08:59:45;;;;;;;15.50;9.10;;;;;;;;;;110315;1278;23102;-77
2023/06/14 09:02:14;;;;;;;13.80;8.80;;;;;;;;;;110344;1278;22122;-78
2023/06/14 09:04:41;;;;;;;14.70;9.20;;;;;;;;;;110457;1260;22740;-78
2023/06/14 09:07:09;;;;;;;14.90;9.30;;;;;;;;;;110337;1279;22262;-78
2023/06/14 09:09:40;;;;;;;16.30;8.90;;;;;;;;;;110163;1278;22121;-77
2023/06/14 09:12:15;;;;;;;15.10;8.40;;;;;;;;;;110332;1278;22120;-78
2023/06/14 09:14:42;;;;;;;13.70;8.10;;;;;;;;;;110427;1259;22881;-78
2023/06/14 09:17:13;;;;;;;12.40;8.00;;;;;;;;;;110346;1278;22850;-77
2023/06/14 09:19:40;;;;;;;14.20;8.20;;;;;;;;;;110227;1278;22225;-78
2023/06/14 09:22:11;;;;;;;12.40;6.90;;;;;;;;;;110339;1278;22067;-77
2023/06/14 09:24:38;;;;;;;14.40;8.50;;;;;;;;;;110389;1269;22033;-78
2023/06/14 09:27:06;;;;;;;13.80;8.00;;;;;;;;;;110156;1278;22101;-78
2023/06/14 09:29:32;;;;;;;12.40;8.20;;;;;;;;;;110237;1278;22076;-78
2023/06/14 09:31:59;;;;;;;12.80;9.10;;;;;;;;;;110365;1278;22148;-77
2023/06/14 09:34:27;;;;;;;15.20;8.20;;;;;;;;;;110294;1260;22105;-78
2023/06/14 09:36:54;;;;;;;17.30;8.90;;;;;;;;;;110239;1278;22110;-78
2023/06/14 09:39:20;;;;;;;12.40;8.80;;;;;;;;;;110344;1278;22237;-78
2023/06/14 09:41:47;;;;;;;11.60;8.50;;;;;;;;;;110220;1279;22153;-77
2023/06/14 09:44:14;;;;;;;12.80;8.70;;;;;;;;;;110062;1260;22513;-78
2023/06/14 09:46:44;;;;;;;13.90;8.70;;;;;;;;;;110107;1278;22135;-77
2023/06/14 09:49:11;;;;;;;12.70;8.10;;;;;;;;;;110059;1278;22275;-77
2023/06/14 09:51:45;;;;;;;14.70;9.00;;;;;;;;;;110309;1278;22773;-77
2023/06/14 09:54:15;;;;;;;21.70;12.80;;;;;;;;;;110114;1279;22182;-77
2023/06/14 09:56:44;;;;;;;21.00;12.50;;;;;;;;;;110521;1263;22599;-78
2023/06/14 09:59:12;;;;;;;17.30;10.90;;;;;;;;;;110258;1279;22850;-78
2023/06/14 10:01:46;;;;;;;12.50;7.50;;;;;;;;;;110111;1279;22324;-77
2023/06/14 10:04:14;;;;;;;11.60;7.50;;;;;;;;;;110118;1279;22110;-78
2023/06/14 10:06:42;;;;;;;14.00;7.40;;;;;;;;;;110445;1261;22214;-78
2023/06/14 10:09:10;;;;;;;10.30;6.30;;;;;;;;;;110294;1279;22120;-76
2023/06/14 10:11:40;;;;;;;13.20;6.60;;;;;;;;;;110286;1279;22125;-78
2023/06/14 10:14:07;;;;;;;11.80;6.30;;;;;;;;;;110222;1279;22351;-76
2023/06/14 10:16:55;;;;;;;11.00;5.50;;;;;;;;;;110297;1259;22123;-77
2023/06/14 10:19:25;;;;;;;8.50;5.00;;;;;;;;;;110135;1279;22857;-79
2023/06/14 10:21:58;;;;;;;9.90;5.60;;;;;;;;;;110130;1279;22397;-78
2023/06/14 10:24:30;;;;;;;9.90;5.90;;;;;;;;;;110095;1279;22149;-78
2023/06/14 10:26:58;;;;;;;9.80;6.20;;;;;;;;;;110398;1259;22139;-77
2023/06/14 10:29:26;;;;;;;9.90;6.30;;;;;;;;;;110145;1279;22126;-78
2023/06/14 10:31:56;;;;;;;8.90;5.60;;;;;;;;;;110121;1279;22759;-77
2023/06/14 10:34:24;;;;;;;9.40;5.90;;;;;;;;;;110137;1279;22155;-77
2023/06/14 10:37:05;;;;;;;10.40;6.50;;;;;;;;;;110420;1257;22031;-78
2023/06/14 10:39:41;;;;;;;9.70;6.00;;;;;;;;;;110088;1279;22000;-77
2023/06/14 10:42:09;;;;;;;8.60;5.80;;;;;;;;;;110232;1280;22180;-77
2023/06/14 10:44:40;;;;;;;8.10;4.70;;;;;;;;;;110212;1279;22929;-77
2023/06/14 10:47:11;;;;;;;9.90;5.40;;;;;;;;;;110454;1264;22095;-77
2023/06/14 10:49:44;;;;;;;9.50;4.20;;;;;;;;;;110195;1279;22106;-77
2023/06/14 10:52:16;;;;;;;9.30;5.10;;;;;;;;;;110236;1279;22728;-77
2023/06/14 10:55:04;;;;;;;11.00;5.40;;;;;;;;;;110216;1280;22126;-77
2023/06/14 10:57:33;;;;;;;7.60;5.00;;;;;;;;;;110463;1262;22213;-78
2023/06/14 11:00:11;;;;;;;9.90;5.40;;;;;;;;;;110135;1279;22125;-77
2023/06/14 11:03:04;;;;;;;8.60;4.90;;;;;;;;;;110223;1279;22114;-79
2023/06/14 11:05:53;;;;;;;10.80;5.10;;;;;;;;;;110135;1279;22104;-78
2023/06/14 11:08:54;;;;;;;11.70;5.10;;;;;;;;;;110549;1260;22093;-78
2023/06/14 11:11:33;;;;;;;;;;;;;;;;;;;;;
2023/06/14 11:14:13;;;;;;;9.10;4.80;;;;;;;;;;110218;1279;22121;-80
2023/06/14 11:16:52;;;;;;;8.60;4.50;;;;;;;;;;110120;1257;22340;-77
2023/06/14 11:19:29;;;;;;;11.10;7.00;;;;;;;;;;110222;1279;22122;-78
2023/06/14 11:22:17;;;;;;;;;;;;;;;;;;;;;
2023/06/14 11:25:04;;;;;;;9.70;4.90;;;;;;;;;;110156;1280;22754;-79
2023/06/14 11:27:34;;;;;;;11.40;4.50;;;;;;;;;;110220;1262;22122;-79
2023/06/14 11:30:12;;;;;;;9.40;4.60;;;;;;;;;;110098;1279;22113;-77
2023/06/14 11:32:40;;;;;;;8.60;4.20;;;;;;;;;;110221;1279;22110;-77
2023/06/14 11:35:09;;;;;;;8.90;4.30;;;;;;;;;;110128;1279;22133;-78
2023/06/14 11:37:40;;;;;;;14.10;4.60;;;;;;;;;;110195;1260;22804;-78
2023/06/14 11:40:11;;;;;;;10.80;5.50;;;;;;;;;;110033;1280;22090;-78
2023/06/14 11:42:45;;;;;;;16.80;9.20;;;;;;;;;;110060;1280;22960;-78
2023/06/14 11:45:33;;;;;;;13.80;9.20;;;;;;;;;;110191;1276;22133;-78
2023/06/14 11:48:01;;;;;;;29.00;19.00;;;;;;;;;;110330;1260;23010;-77
2023/06/14 11:50:30;;;;;;;16.50;7.10;;;;;;;;;;110074;1280;21977;-77
2023/06/14 11:53:06;;;;;;;10.10;4.90;;;;;;;;;;110003;1280;22984;-75
2023/06/14 11:55:41;;;;;;;14.40;6.70;;;;;;;;;;110168;1280;22857;-77
2023/06/14 11:58:11;;;;;;;14.80;9.40;;;;;;;;;;110157;1264;22009;-78
2023/06/14 12:00:42;;;;;;;12.80;10.00;;;;;;;;;;110067;1280;22105;-78
2023/06/14 12:03:14;;;;;;;8.70;4.50;;;;;;;;;;110030;1280;22120;-78
2023/06/14 12:05:46;;;;;;;9.80;4.20;;;;;;;;;;109974;1280;22105;-77
2023/06/14 12:08:17;;;;;;;7.60;3.60;;;;;;;;;;110069;1264;22744;-78
2023/06/14 12:10:51;;;;;;;7.90;4.20;;;;;;;;;;110091;1280;22842;-78
2023/06/14 12:13:20;;;;;;;9.30;4.20;;;;;;;;;;110092;1280;23046;-78
2023/06/14 12:15:54;;;;;;;8.30;4.20;;;;;;;;;;110088;1280;22182;-79
2023/06/14 12:18:32;;;;;;;8.00;4.50;;;;;;;;;;110270;1258;22318;-77
2023/06/14 12:21:02;;;;;;;8.60;5.20;;;;;;;;;;110095;1280;23022;-77
2023/06/14 12:23:59;;;;;;;8.70;5.00;;;;;;;;;;110056;1280;22095;-77
2023/06/14 12:26:26;;;;;;;8.20;4.00;;;;;;;;;;109976;1280;22024;-77
2023/06/14 12:28:54;;;;;;;7.70;4.10;;;;;;;;;;110263;1258;22134;-77
2023/06/14 12:31:22;;;;;;;7.00;3.20;;;;;;;;;;110080;1280;22199;-78
2023/06/14 12:33:49;;;;;;;5.90;3.00;;;;;;;;;;110107;1280;22129;-78
2023/06/14 12:36:19;;;;;;;6.40;3.50;;;;;;;;;;110126;1280;22107;-77
2023/06/14 12:38:53;;;;;;;6.90;3.60;;;;;;;;;;110228;1258;22084;-79
2023/06/14 12:41:27;;;;;;;6.90;3.60;;;;;;;;;;110004;1281;22161;-78
2023/06/14 12:43:57;;;;;;;6.80;3.70;;;;;;;;;;109962;1281;22159;-77
2023/06/14 12:46:26;;;;;;;7.30;4.20;;;;;;;;;;110092;1281;22111;-78
2023/06/14 12:48:56;;;;;;;8.60;5.00;;;;;;;;;;110056;1264;22825;-79
2023/06/14 12:51:25;;;;;;;7.70;4.30;;;;;;;;;;110012;1281;22105;-78
2023/06/14 12:53:55;;;;;;;7.00;4.10;;;;;;;;;;110012;1281;22167;-78
2023/06/14 12:56:25;;;;;;;9.40;4.90;;;;;;;;;;110056;1281;22295;-78
2023/06/14 12:58:55;;;;;;;8.60;4.90;;;;;;;;;;109995;1259;22195;-79
2023/06/14 13:01:25;;;;;;;9.30;4.70;;;;;;;;;;110050;1281;22108;-78
2023/06/14 13:03:55;;;;;;;11.20;4.90;;;;;;;;;;110009;1281;22120;-79
2023/06/14 13:06:24;;;;;;;9.10;4.50;;;;;;;;;;110013;1277;22129;-81
2023/06/14 13:08:58;;;;;;;9.70;3.80;;;;;;;;;;110007;1259;22186;-81
2023/06/14 13:11:33;;;;;;;7.80;4.40;;;;;;;;;;110023;1281;22819;-80
2023/06/14 13:14:03;;;;;;;10.30;3.60;;;;;;;;;;110033;1279;22147;-81
2023/06/14 13:16:32;;;;;;;9.00;3.90;;;;;;;;;;109991;1279;22175;-80
2023/06/14 13:19:02;;;;;;;8.00;4.10;;;;;;;;;;110037;1259;22403;-80
2023/06/14 13:21:38;;;;;;;7.80;3.70;;;;;;;;;;109981;1282;22127;-80
2023/06/14 13:24:07;;;;;;;10.90;4.00;;;;;;;;;;110000;1282;22722;-80
2023/06/14 13:26:41;;;;;;;8.40;3.90;;;;;;;;;;109997;1276;22145;-80
2023/06/14 13:29:13;;;;;;;7.60;3.90;;;;;;;;;;109976;1259;22970;-80
2023/06/14 13:31:45;;;;;;;9.30;4.00;;;;;;;;;;109933;1283;22137;-80
2023/06/14 13:34:13;;;;;;;7.40;3.50;;;;;;;;;;110032;1282;22298;-80
2023/06/14 13:36:43;;;;;;;8.00;3.90;;;;;;;;;;110044;1282;22885;-79
2023/06/14 13:39:13;;;;;;;8.70;4.20;;;;;;;;;;109983;1282;22759;-80
2023/06/14 13:48:47;;;;;;;6.60;3.00;;;;;;;;;;103973;1292;545044;-78
2023/06/14 13:51:14;;;;;;;7.50;3.80;;;;;;;;;;106012;1288;22528;-79
2023/06/14 13:53:43;;;;;;;7.10;3.90;;;;;;;;;;106021;1289;24230;-80
2023/06/14 13:56:11;;;;;;;7.60;4.20;;;;;;;;;;105943;1289;22591;-80
2023/06/14 13:58:38;;;;;;;7.50;4.50;;;;;;;;;;106038;1276;26523;-82
2023/06/14 14:01:08;;;;;;;9.10;4.90;;;;;;;;;;106108;1282;22548;-79
2023/06/14 14:03:35;;;;;;;9.70;4.60;;;;;;;;;;104001;1286;24254;-80
2023/06/14 14:06:03;;;;;;;7.70;4.60;;;;;;;;;;106512;1279;22537;-79
2023/06/14 14:08:36;;;;;;;7.90;4.70;;;;;;;;;;106786;1269;25395;-82
2023/06/14 14:11:03;;;;;;;8.60;5.20;;;;;;;;;;106842;1271;22589;-83
2023/06/14 14:13:30;;;;;;;9.40;5.30;;;;;;;;;;106918;1274;22542;-79
2023/06/14 14:15:57;;;;;;;11.00;5.00;;;;;;;;;;106913;1266;23527;-79
2023/06/14 14:18:24;;;;;;;8.80;4.40;;;;;;;;;;106839;1276;22635;-80
2023/06/14 14:20:51;;;;;;;8.30;4.90;;;;;;;;;;106782;1278;24202;-78
2023/06/14 14:23:19;;;;;;;11.90;5.00;;;;;;;;;;106815;1278;22529;-85
2023/06/14 14:25:55;;;;;;;9.00;4.90;;;;;;;;;;106755;1278;24315;-79
2023/06/14 14:28:22;;;;;;;9.30;4.70;;;;;;;;;;106960;1254;22479;-85
2023/06/14 14:30:49;;;;;;;8.70;4.80;;;;;;;;;;106897;1276;22531;-83
2023/06/14 14:33:36;;;;;;;8.80;4.40;;;;;;;;;;106774;1270;24269;-80
2023/06/14 14:36:03;;;;;;;10.00;4.60;;;;;;;;;;106933;1273;22526;-79
2023/06/14 14:38:30;;;;;;;9.20;5.30;;;;;;;;;;106872;1254;22530;-85
2023/06/14 14:40:57;;;;;;;9.20;4.80;;;;;;;;;;106845;1278;22771;-79
2023/06/14 14:43:24;;;;;;;9.40;4.70;;;;;;;;;;106900;1278;25344;-79
2023/06/14 14:45:51;;;;;;;9.20;4.60;;;;;;;;;;106808;1278;24255;-82
2023/06/14 14:48:20;;;;;;;10.00;5.20;;;;;;;;;;106897;1270;22996;-80
2023/06/14 14:50:47;;;;;;;8.00;4.80;;;;;;;;;;107143;1273;25512;-79
2023/06/14 14:53:16;;;;;;;9.80;5.10;;;;;;;;;;107115;1275;22483;-82
2023/06/14 14:55:43;;;;;;;8.90;4.30;;;;;;;;;;107015;1275;22562;-79
2023/06/14 14:58:12;;;;;;;7.50;4.00;;;;;;;;;;107090;1275;25574;-82
2023/06/14 15:00:41;;;;;;;11.50;4.90;;;;;;;;;;106916;1261;22583;-81
2023/06/14 15:03:07;;;;;;;9.40;4.60;;;;;;;;;;106894;1276;23592;-81
2023/06/14 15:05:35;;;;;;;8.70;4.30;;;;;;;;;;107151;1272;22636;-78
2023/06/14 15:08:01;;;;;;;9.60;4.10;;;;;;;;;;107103;1275;22511;-77
2023/06/14 15:10:28;;;;;;;7.90;4.10;;;;;;;;;;106877;1257;22638;-83
2023/06/14 15:12:58;;;;;;;8.40;4.20;;;;;;;;;;106966;1275;22537;-78
2023/06/14 15:15:27;;;;;;;9.90;3.90;;;;;;;;;;106795;1268;22595;-81
2023/06/14 15:17:57;;;;;;;7.70;3.70;;;;;;;;;;107189;1269;25249;-80
2023/06/14 15:20:24;;;;;;;8.00;4.10;;;;;;;;;;107026;1257;25278;-78
2023/06/14 15:23:19;;;;;;;7.60;3.70;;;;;;;;;;107066;1269;22983;-78
2023/06/14 15:25:46;;;;;;;8.90;4.10;;;;;;;;;;106972;1270;22529;-77
2023/06/14 15:28:13;;;;;;;9.60;3.90;;;;;;;;;;106895;1269;25366;-79
2023/06/14 15:30:41;;;;;;;9.20;4.30;;;;;;;;;;106979;1257;25634;-82
2023/06/14 15:33:08;;;;;;;9.10;4.30;;;;;;;;;;106959;1270;22651;-81
2023/06/14 15:35:35;;;;;;;7.20;3.40;;;;;;;;;;107089;1273;25271;-78